createdAt,value
2019-02-27T00:01:55.243Z,54.93
2019-02-27T00:04:45.312Z,53.85
2019-02-27T00:07:34.895Z,63.65
2019-02-27T00:10:24.865Z,47.98
2019-02-27T00:13:14.642Z,50.45
2019-02-27T00:16:04.314Z,54.70
2019-02-27T00:18:53.820Z,51.13
2019-02-27T00:21:45.126Z,54.08
2019-02-27T00:24:34.785Z,47.53
2019-02-27T00:27:24.253Z,57.20
2019-02-27T00:30:14.065Z,59.70
2019-02-27T00:33:04.274Z,57.75
2019-02-27T00:35:54.013Z,61.08
2019-02-27T00:38:43.895Z,51.30
2019-02-27T00:41:33.775Z,67.40
2019-02-27T00:44:23.706Z,54.13
2019-02-27T00:47:13.135Z,56.58
2019-02-27T00:50:05.806Z,57.80
2019-02-27T00:52:54.223Z,55.33
2019-02-27T00:55:44.326Z,52.03
2019-02-27T00:58:34.320Z,59.10
2019-02-27T01:01:24.295Z,55.43
2019-02-27T01:04:13.978Z,55.35
2019-02-27T01:07:03.636Z,55.20
2019-02-27T01:09:53.319Z,51.55
2019-02-27T01:12:43.317Z,63.73
2019-02-27T01:15:32.882Z,52.17
2019-02-27T01:18:22.833Z,53.75
2019-02-27T01:21:12.746Z,54.35
2019-02-27T01:24:02.424Z,51.00
2019-02-27T01:26:53.448Z,55.03
2019-02-27T01:29:43.332Z,59.23
2019-02-27T01:32:33.555Z,70.60
2019-02-27T01:35:23.281Z,63.50
2019-02-27T01:38:13.326Z,58.80
2019-02-27T01:41:03.333Z,55.92
2019-02-27T01:43:53.012Z,55.78
2019-02-27T01:46:42.799Z,50.63
2019-02-27T01:49:32.982Z,53.73
2019-02-27T01:52:22.896Z,53.98
2019-02-27T01:55:12.596Z,50.85
2019-02-27T01:58:02.538Z,52.40
2019-02-27T02:00:56.042Z,51.35
2019-02-27T02:03:47.199Z,55.33
2019-02-27T02:06:35.034Z,59.45
2019-02-27T02:09:38.595Z,58.20
2019-02-27T02:12:31.252Z,62.27
2019-02-27T02:15:42.236Z,54.00
2019-02-27T02:19:07.671Z,68.95
2019-02-27T02:22:34.135Z,59.53
2019-02-27T02:26:08.949Z,58.63
2019-02-27T02:29:35.593Z,54.80
2019-02-27T02:33:09.103Z,50.10
2019-02-27T02:36:48.032Z,53.50
2019-02-27T02:40:09.655Z,54.45
2019-02-27T02:43:25.312Z,54.93
2019-02-27T02:46:58.648Z,53.00
2019-02-27T02:50:33.702Z,52.23
2019-02-27T02:54:16.411Z,48.42
2019-02-27T02:57:39.333Z,49.88
2019-02-27T03:01:06.004Z,47.10
2019-02-27T03:04:29.382Z,47.98
2019-02-27T03:08:05.847Z,53.08
2019-02-27T03:11:54.880Z,57.50
2019-02-27T03:15:11.934Z,52.00
2019-02-27T03:18:31.833Z,47.35
2019-02-27T03:21:52.225Z,47.67
2019-02-27T03:25:22.444Z,53.80
2019-02-27T03:28:50.108Z,55.52
2019-02-27T03:32:01.551Z,50.45
2019-02-27T03:35:38.697Z,44.08
2019-02-27T03:39:21.917Z,62.33
2019-02-27T03:42:40.233Z,47.27
2019-02-27T03:46:03.149Z,54.90
2019-02-27T03:49:39.637Z,47.58
2019-02-27T03:52:52.827Z,44.53
2019-02-27T03:56:08.704Z,45.75
2019-02-27T03:59:42.130Z,44.65
2019-02-27T04:02:57.399Z,44.45
2019-02-27T04:06:28.240Z,44.63
2019-02-27T04:09:20.126Z,51.00
2019-02-27T04:12:10.166Z,52.78
2019-02-27T04:14:59.832Z,46.85
2019-02-27T04:17:51.894Z,53.25
2019-02-27T04:20:38.826Z,50.23
2019-02-27T04:23:28.844Z,48.40
2019-02-27T04:26:19.473Z,52.75
2019-02-27T04:29:09.532Z,57.00
2019-02-27T04:31:59.234Z,48.78
2019-02-27T04:34:49.204Z,47.60
2019-02-27T04:37:39.095Z,52.88
2019-02-27T04:40:28.773Z,47.90
2019-02-27T04:43:18.346Z,51.33
2019-02-27T04:46:08.013Z,57.78
2019-02-27T04:48:58.205Z,53.40
2019-02-27T04:51:50.582Z,56.48
2019-02-27T04:54:41.651Z,53.90
2019-02-27T04:57:33.742Z,49.67
2019-02-27T05:00:26.043Z,57.17
2019-02-27T05:03:15.207Z,55.67
2019-02-27T05:06:04.863Z,48.30
2019-02-27T05:08:54.421Z,46.85
2019-02-27T05:11:47.443Z,54.58
2019-02-27T05:14:35.642Z,61.83
2019-02-27T05:17:25.557Z,63.15
2019-02-27T05:20:15.425Z,41.85
2019-02-27T05:23:05.415Z,49.93
2019-02-27T05:25:55.374Z,49.93
2019-02-27T05:28:45.396Z,48.25
2019-02-27T05:31:38.200Z,45.20
2019-02-27T05:34:28.157Z,48.02
2019-02-27T05:37:17.763Z,48.38
2019-02-27T05:40:08.062Z,49.70
2019-02-27T05:42:58.275Z,39.92
2019-02-27T05:45:47.977Z,47.48
2019-02-27T05:48:37.594Z,45.75
2019-02-27T05:51:27.379Z,39.60
2019-02-27T05:54:17.160Z,35.00
2019-02-27T05:57:06.517Z,36.50
2019-02-27T05:59:56.635Z,40.48
2019-02-27T06:02:46.493Z,47.70
2019-02-27T06:05:36.638Z,44.10
2019-02-27T06:08:26.775Z,45.67
2019-02-27T06:11:16.669Z,39.73
2019-02-27T06:14:06.674Z,43.95
2019-02-27T06:16:56.646Z,35.70
2019-02-27T06:19:46.647Z,43.17
2019-02-27T06:22:36.414Z,40.58
2019-02-27T06:25:26.285Z,43.28
2019-02-27T06:28:18.452Z,39.18
2019-02-27T06:31:07.532Z,42.80
2019-02-27T06:33:59.018Z,40.12
2019-02-27T06:36:48.785Z,42.85
2019-02-27T06:39:38.454Z,40.38
2019-02-27T06:42:28.088Z,45.63
2019-02-27T06:45:18.216Z,48.33
2019-02-27T06:48:10.217Z,39.75
2019-02-27T06:51:00.991Z,34.27
2019-02-27T06:53:51.685Z,40.48
2019-02-27T06:56:41.448Z,39.42
2019-02-27T06:59:31.235Z,35.92
2019-02-27T07:02:21.696Z,40.23
2019-02-27T07:05:14.045Z,39.83
2019-02-27T07:08:05.105Z,42.23
2019-02-27T07:10:57.357Z,42.43
2019-02-27T07:13:46.551Z,40.30
2019-02-27T07:16:37.483Z,49.98
2019-02-27T07:19:27.465Z,39.33
2019-02-27T07:22:17.197Z,50.92
2019-02-27T07:25:07.299Z,41.33
2019-02-27T07:27:57.128Z,45.80
2019-02-27T07:30:47.042Z,36.17
2019-02-27T07:33:37.984Z,37.80
2019-02-27T07:36:27.862Z,48.50
2019-02-27T07:39:17.451Z,34.33
2019-02-27T07:42:07.243Z,40.40
2019-02-27T07:44:56.804Z,39.63
2019-02-27T07:47:46.598Z,41.15
2019-02-27T07:50:36.351Z,45.67
2019-02-27T07:53:26.502Z,37.70
2019-02-27T07:56:16.654Z,36.58
2019-02-27T07:59:06.717Z,30.20
2019-02-27T08:01:57.379Z,29.72
2019-02-27T08:04:47.214Z,34.08
2019-02-27T08:07:40.332Z,32.08
2019-02-27T08:10:30.456Z,33.60
2019-02-27T08:13:20.048Z,31.55
2019-02-27T08:16:09.777Z,34.45
2019-02-27T08:18:59.270Z,33.23
2019-02-27T08:21:49.029Z,36.00
2019-02-27T08:24:38.638Z,36.33
2019-02-27T08:27:28.274Z,30.62
2019-02-27T08:30:19.709Z,30.20
2019-02-27T08:33:09.600Z,37.48
2019-02-27T08:35:59.573Z,34.95
2019-02-27T08:38:49.378Z,32.28
2019-02-27T08:41:39.025Z,31.73
2019-02-27T08:44:28.511Z,39.05
2019-02-27T08:47:18.302Z,45.85
2019-02-27T08:50:10.799Z,37.83
2019-02-27T08:53:00.429Z,29.87
2019-02-27T08:55:50.308Z,29.10
2019-02-27T08:58:43.044Z,26.02
2019-02-27T09:01:32.802Z,28.67
2019-02-27T09:04:22.362Z,29.67
2019-02-27T09:07:12.152Z,23.50
2019-02-27T09:10:01.756Z,30.30
2019-02-27T09:12:51.897Z,31.25
2019-02-27T09:15:41.772Z,29.40
2019-02-27T09:18:33.339Z,27.95
2019-02-27T09:21:24.961Z,26.82
2019-02-27T09:24:14.631Z,27.32
2019-02-27T09:27:04.534Z,27.50
2019-02-27T09:29:55.385Z,27.45
2019-02-27T09:32:46.065Z,24.12
2019-02-27T09:35:38.643Z,26.68
2019-02-27T09:38:26.755Z,25.20
2019-02-27T09:41:16.582Z,28.47
2019-02-27T09:44:06.395Z,26.97
2019-02-27T09:47:00.132Z,33.90
2019-02-27T09:49:50.141Z,28.05
2019-02-27T09:52:40.268Z,30.62
2019-02-27T09:55:30.120Z,28.02
2019-02-27T09:58:19.860Z,30.52
2019-02-27T10:01:14.739Z,32.48
2019-02-27T10:04:04.535Z,28.50
2019-02-27T10:06:54.477Z,26.87
2019-02-27T10:09:44.313Z,28.45
2019-02-27T10:12:33.782Z,25.17
2019-02-27T10:15:25.142Z,29.48
2019-02-27T10:18:18.347Z,27.25
2019-02-27T10:21:06.093Z,26.93
2019-02-27T10:23:55.991Z,24.77
2019-02-27T10:26:45.882Z,30.62
2019-02-27T10:29:36.105Z,28.35
2019-02-27T10:32:26.656Z,26.82
2019-02-27T10:35:17.056Z,25.55
2019-02-27T10:38:06.727Z,23.52
2019-02-27T10:40:56.411Z,28.07
2019-02-27T10:43:46.269Z,27.70
2019-02-27T10:46:36.052Z,29.15
2019-02-27T10:49:29.113Z,29.82
2019-02-27T10:52:24.037Z,26.12
2019-02-27T10:55:14.161Z,25.85
2019-02-27T10:58:04.214Z,22.25
2019-02-27T11:00:54.596Z,22.17
2019-02-27T11:03:44.073Z,24.98
2019-02-27T11:06:37.885Z,26.50
2019-02-27T11:09:29.251Z,28.05
2019-02-27T11:12:18.962Z,21.82
2019-02-27T11:15:11.565Z,25.95
2019-02-27T11:18:05.509Z,26.40
2019-02-27T11:20:55.689Z,26.57
2019-02-27T11:23:44.502Z,24.40
2019-02-27T11:26:34.642Z,24.32
2019-02-27T11:29:24.433Z,23.42
2019-02-27T11:32:13.874Z,26.30
2019-02-27T11:35:03.675Z,29.18
2019-02-27T11:37:53.468Z,25.70
2019-02-27T11:40:43.012Z,28.85
2019-02-27T11:43:37.991Z,26.75
2019-02-27T11:46:28.034Z,27.07
2019-02-27T11:49:17.555Z,23.85
2019-02-27T11:52:07.332Z,27.52
2019-02-27T11:54:57.306Z,30.05
2019-02-27T11:57:46.757Z,27.37
2019-02-27T12:00:36.459Z,30.40
2019-02-27T12:03:26.355Z,31.27
2019-02-27T12:06:15.901Z,30.15
2019-02-27T12:09:07.196Z,28.12
2019-02-27T12:11:57.700Z,36.25
2019-02-27T12:14:47.506Z,31.97
2019-02-27T12:17:37.211Z,30.60
2019-02-27T12:20:27.275Z,30.02
2019-02-27T12:23:16.943Z,32.25
2019-02-27T12:26:06.936Z,29.92
2019-02-27T12:28:56.484Z,28.60
2019-02-27T12:31:48.322Z,31.97
2019-02-27T12:34:37.816Z,26.40
2019-02-27T12:37:28.304Z,23.98
2019-02-27T12:40:23.894Z,26.37
2019-02-27T12:43:10.434Z,29.55
2019-02-27T12:46:01.083Z,30.48
2019-02-27T12:48:51.214Z,28.23
2019-02-27T12:51:40.489Z,30.05
2019-02-27T12:54:29.888Z,26.45
2019-02-27T12:57:19.680Z,31.68
2019-02-27T13:00:11.244Z,29.27
2019-02-27T13:03:00.675Z,28.05
2019-02-27T13:05:50.404Z,26.30
2019-02-27T13:08:40.371Z,28.50
2019-02-27T13:11:30.343Z,26.17
2019-02-27T13:14:19.791Z,28.27
2019-02-27T13:17:10.623Z,26.77
2019-02-27T13:20:00.370Z,26.90
2019-02-27T13:22:50.503Z,28.03
2019-02-27T13:25:40.471Z,27.93
2019-02-27T13:28:30.344Z,34.03
2019-02-27T13:31:20.331Z,29.43
2019-02-27T13:34:11.251Z,30.13
2019-02-27T13:37:01.602Z,43.27
2019-02-27T13:39:51.190Z,28.37
2019-02-27T13:42:40.981Z,31.27
2019-02-27T13:45:30.670Z,28.83
2019-02-27T13:48:20.548Z,27.10
2019-02-27T13:51:10.092Z,32.67
2019-02-27T13:54:00.696Z,26.60
2019-02-27T13:56:50.700Z,28.67
2019-02-27T13:59:42.126Z,27.53
2019-02-27T14:02:38.233Z,29.50
2019-02-27T14:05:24.073Z,28.53
2019-02-27T14:08:14.111Z,28.60
2019-02-27T14:11:03.703Z,24.63
2019-02-27T14:13:53.141Z,27.53
2019-02-27T14:16:42.474Z,23.43
2019-02-27T14:19:32.336Z,26.00
2019-02-27T14:22:22.264Z,26.37
2019-02-27T14:25:14.152Z,21.73
2019-02-27T14:28:04.041Z,27.40
2019-02-27T14:30:53.781Z,21.87
2019-02-27T14:33:43.581Z,21.95
2019-02-27T14:36:33.351Z,22.93
2019-02-27T14:39:23.155Z,22.20
2019-02-27T14:42:13.165Z,23.25
2019-02-27T14:45:05.678Z,18.95
2019-02-27T14:47:54.930Z,21.75
2019-02-27T14:50:48.782Z,19.98
2019-02-27T14:53:38.198Z,17.17
2019-02-27T14:56:28.260Z,19.30
2019-02-27T14:59:18.367Z,20.25
2019-02-27T15:02:08.232Z,24.55
2019-02-27T15:04:57.945Z,21.20
2019-02-27T15:07:47.724Z,29.40
2019-02-27T15:10:41.111Z,24.85
2019-02-27T15:13:30.322Z,28.95
2019-02-27T15:16:21.789Z,25.60
2019-02-27T15:19:11.435Z,25.82
2019-02-27T15:22:01.001Z,26.15
2019-02-27T15:24:51.187Z,28.12
2019-02-27T15:27:40.787Z,26.80
2019-02-27T15:30:30.457Z,23.77
2019-02-27T15:33:20.263Z,27.87
2019-02-27T15:36:09.694Z,31.65
2019-02-27T15:38:58.971Z,29.00
2019-02-27T15:41:48.706Z,26.97
2019-02-27T15:44:38.454Z,34.98
2019-02-27T15:47:33.526Z,29.18
2019-02-27T15:50:31.892Z,32.03
2019-02-27T15:53:21.761Z,29.65
2019-02-27T15:56:19.375Z,32.08
2019-02-27T15:59:09.300Z,29.70
2019-02-27T16:02:02.351Z,35.15
2019-02-27T16:04:52.240Z,31.73
2019-02-27T16:07:42.319Z,34.58
2019-02-27T16:10:32.235Z,31.95
2019-02-27T16:13:21.948Z,35.13
2019-02-27T16:16:11.875Z,39.23
2019-02-27T16:19:02.301Z,30.23
2019-02-27T16:21:56.809Z,34.20
2019-02-27T16:24:44.219Z,31.48
2019-02-27T16:27:35.439Z,37.28
2019-02-27T16:30:31.145Z,34.08
2019-02-27T16:33:23.140Z,31.50
2019-02-27T16:36:12.890Z,34.13
2019-02-27T16:39:06.994Z,32.85
2019-02-27T16:41:54.466Z,38.15
2019-02-27T16:44:44.183Z,31.97
2019-02-27T16:47:34.136Z,35.55
2019-02-27T16:50:27.261Z,36.68
2019-02-27T16:53:19.264Z,44.77
2019-02-27T16:56:08.247Z,39.55
2019-02-27T16:58:59.651Z,34.05
2019-02-27T17:01:49.567Z,37.78
2019-02-27T17:04:39.454Z,39.78
2019-02-27T17:07:29.235Z,39.00
2019-02-27T17:10:21.732Z,43.58
2019-02-27T17:13:14.409Z,45.55
2019-02-27T17:16:03.392Z,38.40
2019-02-27T17:18:53.375Z,43.70
2019-02-27T17:21:43.032Z,40.28
2019-02-27T17:24:32.914Z,34.63
2019-02-27T17:27:22.109Z,38.50
2019-02-27T17:30:21.392Z,33.40
2019-02-27T17:33:11.622Z,38.73
2019-02-27T17:36:01.314Z,32.28
2019-02-27T17:38:50.823Z,40.78
2019-02-27T17:41:41.901Z,36.42
2019-02-27T17:44:31.681Z,33.92
2019-02-27T17:47:21.702Z,34.88
2019-02-27T17:50:11.282Z,36.28
2019-02-27T17:53:00.892Z,31.00
2019-02-27T17:55:51.001Z,36.77
2019-02-27T17:58:41.675Z,32.38
2019-02-27T18:01:31.096Z,33.45
2019-02-27T18:04:20.792Z,31.90
2019-02-27T18:07:10.716Z,33.98
2019-02-27T18:10:01.184Z,36.77
2019-02-27T18:12:52.516Z,39.70
2019-02-27T18:15:45.347Z,35.95
2019-02-27T18:18:34.525Z,36.08
2019-02-27T18:21:24.388Z,38.42
2019-02-27T18:24:13.960Z,40.92
2019-02-27T18:27:03.495Z,63.28
2019-02-27T18:29:52.903Z,62.55
2019-02-27T18:32:42.732Z,47.55
2019-02-27T18:35:32.568Z,39.05
2019-02-27T18:38:27.394Z,45.48
2019-02-27T18:41:14.486Z,40.88
2019-02-27T18:44:07.875Z,34.50
2019-02-27T18:46:56.285Z,38.35
2019-02-27T18:49:49.099Z,37.75
2019-02-27T18:52:39.044Z,42.20
2019-02-27T18:55:30.978Z,43.58
2019-02-27T18:58:20.920Z,39.20
2019-02-27T19:01:12.553Z,38.90
2019-02-27T19:04:02.145Z,40.78
2019-02-27T19:06:51.726Z,42.10
2019-02-27T19:09:41.202Z,38.70
2019-02-27T19:12:30.895Z,38.33
2019-02-27T19:15:22.103Z,37.85
2019-02-27T19:18:12.209Z,41.30
2019-02-27T19:21:02.334Z,39.23
2019-02-27T19:23:53.340Z,38.55
2019-02-27T19:26:44.471Z,44.03
2019-02-27T19:29:35.068Z,40.52
2019-02-27T19:32:25.079Z,41.75
2019-02-27T19:35:18.551Z,42.43
2019-02-27T19:38:06.453Z,39.67
2019-02-27T19:40:56.715Z,36.05
2019-02-27T19:43:46.647Z,32.33
2019-02-27T19:46:36.525Z,35.52
2019-02-27T19:49:26.405Z,32.53
2019-02-27T19:52:16.292Z,35.35
2019-02-27T19:55:06.379Z,36.45
2019-02-27T19:57:57.287Z,41.00
2019-02-27T20:00:48.837Z,31.57
2019-02-27T20:03:38.464Z,34.85
2019-02-27T20:06:28.246Z,34.05
2019-02-27T20:09:20.164Z,32.58
2019-02-27T20:12:09.696Z,30.23
2019-02-27T20:14:59.268Z,38.02
2019-02-27T20:17:49.110Z,30.90
2019-02-27T20:20:40.929Z,34.45
2019-02-27T20:23:30.702Z,28.40
2019-02-27T20:26:21.178Z,31.82
2019-02-27T20:29:10.882Z,32.58
2019-02-27T20:32:01.835Z,33.92
2019-02-27T20:34:52.566Z,39.60
2019-02-27T20:37:41.853Z,36.03
2019-02-27T20:40:34.220Z,33.80
2019-02-27T20:43:28.941Z,33.85
2019-02-27T20:46:14.764Z,33.60
2019-02-27T20:49:05.304Z,34.95
2019-02-27T20:51:55.232Z,35.05
2019-02-27T20:54:45.305Z,36.17
2019-02-27T20:57:35.023Z,37.17
2019-02-27T21:00:25.067Z,37.78
2019-02-27T21:03:14.808Z,37.80
2019-02-27T21:06:04.916Z,37.50
2019-02-27T21:08:54.778Z,38.40
2019-02-27T21:11:44.587Z,41.15
2019-02-27T21:14:34.319Z,37.75
2019-02-27T21:17:23.974Z,36.83
2019-02-27T21:20:13.672Z,42.15
2019-02-27T21:23:03.240Z,39.10
2019-02-27T21:25:53.011Z,38.28
2019-02-27T21:28:43.132Z,42.03
2019-02-27T21:31:32.783Z,37.35
2019-02-27T21:34:22.098Z,43.10
2019-02-27T21:37:12.432Z,42.98
2019-02-27T21:40:03.334Z,42.35
2019-02-27T21:42:53.237Z,47.67
2019-02-27T21:45:43.121Z,44.00
2019-02-27T21:48:32.481Z,44.58
2019-02-27T21:51:22.418Z,43.60
2019-02-27T21:54:12.471Z,44.33
2019-02-27T21:57:02.452Z,51.77
2019-02-27T21:59:52.346Z,46.02
2019-02-27T22:02:42.265Z,41.95
2019-02-27T22:05:33.423Z,47.62
2019-02-27T22:08:25.157Z,52.88
2019-02-27T22:11:15.167Z,43.95
2019-02-27T22:14:05.355Z,48.40
2019-02-27T22:16:55.512Z,46.98
2019-02-27T22:19:45.587Z,47.67
2019-02-27T22:22:35.586Z,44.88
2019-02-27T22:25:30.203Z,41.73
2019-02-27T22:28:17.279Z,48.95
2019-02-27T22:31:08.345Z,47.30
2019-02-27T22:33:58.184Z,44.70
2019-02-27T22:36:48.193Z,52.53
2019-02-27T22:39:38.064Z,43.17
2019-02-27T22:42:28.172Z,50.28
2019-02-27T22:45:18.430Z,50.95
2019-02-27T22:48:08.566Z,50.60
2019-02-27T22:50:58.453Z,56.05
2019-02-27T22:53:48.365Z,52.93
2019-02-27T22:56:38.186Z,53.20
2019-02-27T22:59:27.825Z,51.73
2019-02-27T23:02:21.612Z,48.70
2019-02-27T23:05:10.472Z,57.15
2019-02-27T23:08:00.355Z,57.70
2019-02-27T23:10:50.266Z,53.80
2019-02-27T23:13:44.156Z,53.42
2019-02-27T23:16:33.193Z,48.33
2019-02-27T23:19:23.142Z,63.58
2019-02-27T23:22:12.850Z,60.67
2019-02-27T23:25:02.725Z,59.13
2019-02-27T23:27:52.546Z,66.20
2019-02-27T23:30:41.965Z,66.12
2019-02-27T23:33:35.581Z,60.35
2019-02-27T23:36:22.918Z,67.60
2019-02-27T23:39:12.975Z,62.23
2019-02-27T23:42:02.715Z,60.65
2019-02-27T23:44:52.013Z,61.13
2019-02-27T23:47:41.665Z,60.17
2019-02-27T23:50:31.753Z,63.30
2019-02-27T23:53:24.442Z,63.15
2019-02-27T23:56:19.329Z,56.10
2019-02-27T23:59:04.572Z,66.25
